Time,TemperatureF,DewpointF,PressureIn,WindDirection,WindDirectionDegrees,WindSpeedMPH,WindSpeedGustMPH,Humidity,HourlyPrecipIn,Conditions,Clouds,dailyrainin,SoftwareType,DateUTC
2013-02-07 00:00:00,23.3,21.6,29.91,ENE,74,3.0,5.0,93,0.00,,---,0.00,VWS V14.01,2013-02-07 06:00:00,
2013-02-07 00:05:00,23.4,21.7,29.91,East,80,3.0,5.0,93,0.00,,---,0.00,VWS V14.01,2013-02-07 06:05:00,
2013-02-07 00:10:00,23.4,21.7,29.91,ENE,66,3.0,6.0,93,0.00,,---,0.00,VWS V14.01,2013-02-07 06:10:00,
2013-02-07 00:15:00,23.5,21.8,29.91,ENE,67,4.0,6.0,93,0.00,,---,0.00,VWS V14.01,2013-02-07 06:15:00,
2013-02-07 00:20:00,23.6,21.9,29.91,ENE,66,6.0,7.0,93,0.00,,---,0.00,VWS V14.01,2013-02-07 06:20:00,
2013-02-07 00:25:00,23.6,21.9,29.90,ENE,65,4.0,7.0,93,0.00,,---,0.00,VWS V14.01,2013-02-07 06:25:00,
2013-02-07 00:30:00,23.6,21.9,29.90,ENE,63,3.0,4.0,93,0.00,,---,0.00,VWS V14.01,2013-02-07 06:30:00,
2013-02-07 00:35:00,23.6,21.9,29.90,ENE,78,3.0,6.0,93,0.00,,---,0.00,VWS V14.01,2013-02-07 06:35:00,
2013-02-07 00:40:00,23.6,21.9,29.90,ENE,63,4.0,7.0,93,0.00,,---,0.00,VWS V14.01,2013-02-07 06:40:00,
2013-02-07 00:45:00,23.7,22.0,29.90,East,82,1.0,7.0,93,0.00,,---,0.00,VWS V14.01,2013-02-07 06:45:00,
2013-02-07 00:50:00,23.7,22.0,29.90,ENE,70,1.0,7.0,93,0.00,,---,0.00,VWS V14.01,2013-02-07 06:50:00,
2013-02-07 00:55:00,23.8,22.3,29.90,ENE,76,1.0,7.0,94,0.00,,---,0.00,VWS V14.01,2013-02-07 06:55:00,
2013-02-07 01:00:00,23.8,22.3,29.89,East,82,1.0,2.0,94,0.00,,---,0.00,VWS V14.01,2013-02-07 07:00:00,
2013-02-07 01:05:00,23.9,22.4,29.89,ENE,70,3.0,5.0,94,0.00,,---,0.00,VWS V14.01,2013-02-07 07:05:00,
2013-02-07 01:10:00,23.9,22.4,29.89,ENE,76,3.0,5.0,94,0.00,,---,0.00,VWS V14.01,2013-02-07 07:10:00,
2013-02-07 01:15:00,23.9,22.4,29.89,East,86,2.0,5.0,94,0.00,,---,0.00,VWS V14.01,2013-02-07 07:15:00,
2013-02-07 01:20:00,24.0,22.5,29.89,ENE,73,2.0,6.0,94,0.00,,---,0.00,VWS V14.01,2013-02-07 07:20:00,
2013-02-07 01:25:00,24.0,22.5,29.89,ENE,65,5.0,6.0,94,0.00,,---,0.00,VWS V14.01,2013-02-07 07:25:00,
2013-02-07 01:30:00,24.1,22.6,29.89,ENE,66,6.0,6.0,94,0.00,,---,0.00,VWS V14.01,2013-02-07 07:30:00,
2013-02-07 01:35:00,24.1,22.6,29.89,ENE,77,3.0,6.0,94,0.00,,---,0.00,VWS V14.01,2013-02-07 07:35:00,
2013-02-07 01:40:00,24.2,22.7,29.89,ENE,70,4.0,6.0,94,0.00,,---,0.00,VWS V14.01,2013-02-07 07:40:00,
2013-02-07 01:45:00,24.3,22.8,29.89,ENE,67,3.0,7.0,94,0.00,,---,0.00,VWS V14.01,2013-02-07 07:45:00,
2013-02-07 01:50:00,24.3,22.8,29.89,ENE,67,4.0,7.0,94,0.00,,---,0.00,VWS V14.01,2013-02-07 07:50:00,
2013-02-07 01:55:00,24.3,22.8,29.89,ENE,66,6.0,7.0,94,0.00,,---,0.00,VWS V14.01,2013-02-07 07:55:00,
2013-02-07 05:30:00,24.4,23.2,29.86,NE,45,5.0,9.0,95,0.00,,---,0.00,VWS V14.01,2013-02-07 11:30:00,
2013-02-07 06:03:00,24.3,23.3,29.86,North,355,3.0,5.0,96,0.00,,---,0.00,VWS V14.01,2013-02-07 12:03:00,
2013-02-07 06:08:00,24.5,23.5,29.87,North,360,5.0,5.0,96,0.00,,---,0.00,VWS V14.01,2013-02-07 12:08:00,
2013-02-07 06:13:00,24.4,23.2,29.86,NE,52,6.0,9.0,95,0.00,,---,0.00,VWS V14.01,2013-02-07 12:13:00,
2013-02-07 06:18:00,24.3,23.1,29.86,NE,38,6.0,9.0,95,0.00,,---,0.00,VWS V14.01,2013-02-07 12:18:00,
2013-02-07 06:23:00,24.3,23.3,29.87,ENE,70,6.0,9.0,96,0.00,,---,0.00,VWS V14.01,2013-02-07 12:23:00,
2013-02-07 06:28:00,24.2,23.2,29.87,ENE,57,5.0,9.0,96,0.00,,---,0.00,VWS V14.01,2013-02-07 12:28:00,
2013-02-07 06:33:00,24.2,23.2,29.87,ENE,65,5.0,7.0,96,0.00,,---,0.00,VWS V14.01,2013-02-07 12:33:00,
2013-02-07 06:38:00,24.2,23.2,29.87,NE,37,3.0,9.0,96,0.00,,---,0.00,VWS V14.01,2013-02-07 12:38:00,
2013-02-07 06:43:00,24.2,23.2,29.87,ENE,57,5.0,9.0,96,0.00,,---,0.00,VWS V14.01,2013-02-07 12:43:00,
2013-02-07 06:48:00,24.2,23.2,29.87,NE,56,6.0,9.0,96,0.00,,---,0.00,VWS V14.01,2013-02-07 12:48:00,
2013-02-07 06:53:00,24.2,23.2,29.87,North,5,4.0,9.0,96,0.00,,---,0.00,VWS V14.01,2013-02-07 12:53:00,
2013-02-07 06:58:00,24.2,23.2,29.87,ENE,64,4.0,9.0,96,0.00,,---,0.00,VWS V14.01,2013-02-07 12:58:00,
2013-02-07 07:03:00,24.2,23.2,29.87,NNE,32,3.0,6.0,96,0.00,,---,0.00,VWS V14.01,2013-02-07 13:03:00,
2013-02-07 07:08:00,24.2,23.2,29.87,NE,44,4.0,9.0,96,0.00,,---,0.00,VWS V14.01,2013-02-07 13:08:00,
2013-02-07 07:13:00,24.1,23.1,29.87,North,360,3.0,9.0,96,0.00,,---,0.00,VWS V14.01,2013-02-07 13:13:00,
2013-02-07 07:18:00,24.1,23.1,29.87,North,360,3.0,9.0,96,0.00,,---,0.00,VWS V14.01,2013-02-07 13:18:00,
2013-02-07 07:23:00,24.1,23.1,29.87,NNE,28,3.0,9.0,96,0.00,,---,0.00,VWS V14.01,2013-02-07 13:23:00,
2013-02-07 07:28:00,24.0,23.0,29.87,NE,39,2.0,9.0,96,0.00,,---,0.00,VWS V14.01,2013-02-07 13:28:00,
2013-02-07 07:33:00,24.0,23.0,29.87,NE,39,2.0,7.0,96,0.00,,---,0.00,VWS V14.01,2013-02-07 13:33:00,
2013-02-07 07:38:00,24.1,23.1,29.87,NNE,28,5.0,11.0,96,0.00,,---,0.00,VWS V14.01,2013-02-07 13:38:00,
2013-02-07 07:43:00,24.1,23.1,29.87,NNE,18,3.0,11.0,96,0.00,,---,0.00,VWS V14.01,2013-02-07 13:43:00,
2013-02-07 07:48:00,24.2,23.2,29.88,NE,36,3.0,11.0,96,0.00,,---,0.00,VWS V14.01,2013-02-07 13:48:00,
2013-02-07 07:53:00,24.2,23.2,29.88,NNE,31,4.0,11.0,96,0.00,,---,0.00,VWS V14.01,2013-02-07 13:53:00,
2013-02-07 07:58:00,24.2,23.2,29.88,ENE,57,6.0,11.0,96,0.00,,---,0.00,VWS V14.01,2013-02-07 13:58:00,
2013-02-07 08:03:00,24.2,23.2,29.88,NNE,28,5.0,5.0,96,0.00,,---,0.00,VWS V14.01,2013-02-07 14:03:00,
2013-02-07 08:08:00,24.2,23.5,29.88,North,5,5.0,5.0,97,0.00,,---,0.00,VWS V14.01,2013-02-07 14:08:00,
2013-02-07 08:13:00,24.3,23.6,29.88,NW,309,2.0,6.0,97,0.00,,---,0.00,VWS V14.01,2013-02-07 14:13:00,
2013-02-07 08:18:00,24.4,23.7,29.88,NNE,26,3.0,6.0,97,0.00,,---,0.00,VWS V14.01,2013-02-07 14:18:00,
2013-02-07 08:23:00,24.4,23.7,29.88,North,5,6.0,7.0,97,0.00,,---,0.00,VWS V14.01,2013-02-07 14:23:00,
2013-02-07 08:28:00,24.4,23.7,29.89,NNW,327,3.0,7.0,97,0.00,,---,0.00,VWS V14.01,2013-02-07 14:28:00,
2013-02-07 08:33:00,24.4,23.7,29.89,NNE,17,6.0,9.0,97,0.00,,---,0.00,VWS V14.01,2013-02-07 14:33:00,
2013-02-07 08:38:00,24.4,23.7,29.89,North,355,5.0,12.0,97,0.00,,---,0.00,VWS V14.01,2013-02-07 14:38:00,
2013-02-07 08:43:00,24.5,23.8,29.89,North,350,5.0,12.0,97,0.00,,---,0.00,VWS V14.01,2013-02-07 14:43:00,
2013-02-07 08:48:00,24.5,23.8,29.89,North,360,8.0,12.0,97,0.00,,---,0.00,VWS V14.01,2013-02-07 14:48:00,
2013-02-07 08:54:00,24.6,23.9,29.89,North,5,5.0,12.0,97,0.00,,---,0.00,VWS V14.01,2013-02-07 14:54:00,
2013-02-07 08:59:00,24.7,24.0,29.89,North,5,6.0,12.0,97,0.00,,---,0.00,VWS V14.01,2013-02-07 14:59:00,
2013-02-07 09:04:00,24.8,24.1,29.89,NNW,336,3.0,10.0,97,0.00,,---,0.00,VWS V14.01,2013-02-07 15:04:00,
2013-02-07 09:09:00,24.9,24.2,29.89,NE,55,3.0,10.0,97,0.00,,---,0.00,VWS V14.01,2013-02-07 15:09:00,
2013-02-07 09:14:00,25.0,24.3,29.89,North,350,1.0,10.0,97,0.00,,---,0.00,VWS V14.01,2013-02-07 15:14:00,
2013-02-07 09:19:00,25.1,24.4,29.89,North,11,4.0,10.0,97,0.00,,---,0.00,VWS V14.01,2013-02-07 15:19:00,
2013-02-07 09:24:00,25.1,24.4,29.89,NE,40,5.0,10.0,97,0.00,,---,0.00,VWS V14.01,2013-02-07 15:24:00,
2013-02-07 09:29:00,25.2,24.5,29.89,NE,34,6.0,11.0,97,0.00,,---,0.00,VWS V14.01,2013-02-07 15:29:00,
2013-02-07 09:34:00,25.3,24.6,29.89,NE,49,5.0,11.0,97,0.00,,---,0.00,VWS V14.01,2013-02-07 15:34:00,
2013-02-07 09:39:00,25.4,24.7,29.89,ENE,59,5.0,13.0,97,0.00,,---,0.00,VWS V14.01,2013-02-07 15:39:00,
2013-02-07 09:44:00,25.5,24.8,29.89,NE,49,4.0,13.0,97,0.00,,---,0.00,VWS V14.01,2013-02-07 15:44:00,
2013-02-07 09:49:00,25.6,24.9,29.89,NNE,13,4.0,13.0,97,0.00,,---,0.00,VWS V14.01,2013-02-07 15:49:00,
2013-02-07 09:54:00,25.7,25.0,29.89,NNE,30,11.0,13.0,97,0.00,,---,0.00,VWS V14.01,2013-02-07 15:54:00,
2013-02-07 09:59:00,25.9,25.2,29.89,North,360,5.0,13.0,97,0.00,,---,0.00,VWS V14.01,2013-02-07 15:59:00,
2013-02-07 10:04:00,26.0,25.3,29.89,NE,51,3.0,5.0,97,0.00,,---,0.00,VWS V14.01,2013-02-07 16:04:00,
2013-02-07 10:09:00,26.2,25.5,29.89,NNW,342,3.0,11.0,97,0.00,,---,0.00,VWS V14.01,2013-02-07 16:09:00,
2013-02-07 10:14:00,26.2,25.5,29.89,NW,307,1.0,11.0,97,0.00,,---,0.00,VWS V14.01,2013-02-07 16:14:00,
2013-02-07 10:19:00,26.3,25.6,29.90,NNE,12,5.0,11.0,97,0.00,,---,0.00,VWS V14.01,2013-02-07 16:19:00,
2013-02-07 10:24:00,26.4,25.7,29.90,NNE,28,3.0,11.0,97,0.00,,---,0.00,VWS V14.01,2013-02-07 16:24:00,
2013-02-07 10:29:00,26.4,25.7,29.90,NE,36,3.0,11.0,97,0.00,,---,0.00,VWS V14.01,2013-02-07 16:29:00,
2013-02-07 10:34:00,26.4,25.7,29.90,North,5,6.0,9.0,97,0.00,,---,0.00,VWS V14.01,2013-02-07 16:34:00,
2013-02-07 10:39:00,26.5,25.8,29.90,NNE,18,10.0,10.0,97,0.00,,---,0.00,VWS V14.01,2013-02-07 16:39:00,
2013-02-07 10:44:00,26.5,25.8,29.90,NNW,329,4.0,10.0,97,0.00,,---,0.00,VWS V14.01,2013-02-07 16:44:00,
2013-02-07 10:49:00,26.5,25.8,29.90,North,355,3.0,10.0,97,0.00,,---,0.00,VWS V14.01,2013-02-07 16:49:00,
2013-02-07 10:54:00,26.5,25.8,29.90,NNW,348,6.0,10.0,97,0.00,,---,0.00,VWS V14.01,2013-02-07 16:54:00,
2013-02-07 10:59:00,26.5,25.8,29.90,North,360,3.0,12.0,97,0.00,,---,0.00,VWS V14.01,2013-02-07 16:59:00,
2013-02-07 11:04:00,26.5,25.8,29.90,North,349,6.0,14.0,97,0.00,,---,0.00,VWS V14.01,2013-02-07 17:04:00,
2013-02-07 11:09:00,26.5,25.8,29.90,North,355,2.0,14.0,97,0.00,,---,0.00,VWS V14.01,2013-02-07 17:09:00,
2013-02-07 11:14:00,26.5,25.8,29.91,NW,306,3.0,14.0,97,0.00,,---,0.00,VWS V14.01,2013-02-07 17:14:00,
2013-02-07 11:19:00,26.5,25.8,29.90,NW,323,6.0,14.0,97,0.00,,---,0.00,VWS V14.01,2013-02-07 17:19:00,
2013-02-07 11:24:00,26.3,25.6,29.90,NNE,14,3.0,14.0,97,0.00,,---,0.00,VWS V14.01,2013-02-07 17:24:00,
2013-02-07 11:29:00,26.2,25.5,29.90,NNE,13,3.0,14.0,97,0.00,,---,0.00,VWS V14.01,2013-02-07 17:29:00,
2013-02-07 11:34:00,26.1,25.4,29.90,ENE,70,6.0,10.0,97,0.00,,---,0.00,VWS V14.01,2013-02-07 17:34:00,
2013-02-07 11:39:00,26.1,25.4,29.89,NNE,15,5.0,12.0,97,0.00,,---,0.00,VWS V14.01,2013-02-07 17:39:00,
2013-02-07 11:44:00,26.1,25.4,29.89,NNE,32,7.0,12.0,97,0.00,,---,0.00,VWS V14.01,2013-02-07 17:44:00,
2013-02-07 11:49:00,26.1,25.4,29.89,NNE,32,2.0,12.0,97,0.00,,---,0.00,VWS V14.01,2013-02-07 17:49:00,
2013-02-07 11:54:00,26.2,25.5,29.89,NNE,22,6.0,12.0,97,0.00,,---,0.00,VWS V14.01,2013-02-07 17:54:00,
2013-02-07 11:59:00,26.2,25.5,29.88,NNW,345,4.0,12.0,97,0.00,,---,0.00,VWS V14.01,2013-02-07 17:59:00,
2013-02-07 12:04:00,26.2,25.5,29.88,NE,40,8.0,11.0,97,0.00,,---,0.00,VWS V14.01,2013-02-07 18:04:00,
2013-02-07 12:09:00,26.2,25.5,29.88,NNE,15,4.0,11.0,97,0.00,,---,0.00,VWS V14.01,2013-02-07 18:09:00,
2013-02-07 12:14:00,26.0,25.3,29.88,NE,46,11.0,13.0,97,0.00,,---,0.00,VWS V14.01,2013-02-07 18:14:00,
2013-02-07 12:19:00,25.8,25.1,29.88,NNE,32,4.0,13.0,97,0.00,,---,0.00,VWS V14.01,2013-02-07 18:19:00,
2013-02-07 12:24:00,25.7,24.7,29.88,North,11,4.0,13.0,96,0.00,,---,0.00,VWS V14.01,2013-02-07 18:24:00,
2013-02-07 12:29:00,25.7,24.7,29.87,North,9,6.0,13.0,96,0.00,,---,0.00,VWS V14.01,2013-02-07 18:29:00,
2013-02-07 12:34:00,25.7,24.7,29.87,North,5,10.0,11.0,96,0.00,,---,0.00,VWS V14.01,2013-02-07 18:34:00,
2013-02-07 12:39:00,25.6,24.6,29.87,NNW,328,5.0,11.0,96,0.00,,---,0.00,VWS V14.01,2013-02-07 18:39:00,
2013-02-07 12:44:00,25.6,24.6,29.87,NNW,332,3.0,11.0,96,0.00,,---,0.00,VWS V14.01,2013-02-07 18:44:00,
2013-02-07 12:49:00,25.5,24.5,29.86,NE,36,5.0,11.0,96,0.00,,---,0.00,VWS V14.01,2013-02-07 18:49:00,
2013-02-07 12:54:00,25.4,24.4,29.87,NNW,339,5.0,11.0,96,0.00,,---,0.00,VWS V14.01,2013-02-07 18:54:00,
2013-02-07 12:59:00,25.4,24.4,29.87,NNE,14,7.0,11.0,96,0.00,,---,0.00,VWS V14.01,2013-02-07 18:59:00,
2013-02-07 13:04:00,25.3,24.3,29.87,North,351,7.0,9.0,96,0.00,,---,0.00,VWS V14.01,2013-02-07 19:04:00,
2013-02-07 13:09:00,25.2,24.2,29.87,North,355,7.0,11.0,96,0.00,,---,0.00,VWS V14.01,2013-02-07 19:09:00,
2013-02-07 13:14:00,25.1,24.1,29.87,North,5,3.0,11.0,96,0.00,,---,0.00,VWS V14.01,2013-02-07 19:14:00,
2013-02-07 13:19:00,25.1,24.1,29.87,North,10,11.0,12.0,96,0.00,,---,0.00,VWS V14.01,2013-02-07 19:19:00,
2013-02-07 13:24:00,25.0,24.0,29.87,NW,325,3.0,12.0,96,0.00,,---,0.00,VWS V14.01,2013-02-07 19:24:00,
2013-02-07 13:29:00,24.9,23.9,29.87,NW,321,4.0,12.0,96,0.00,,---,0.00,VWS V14.01,2013-02-07 19:29:00,
2013-02-07 13:34:00,24.9,23.9,29.87,North,355,2.0,11.0,96,0.00,,---,0.00,VWS V14.01,2013-02-07 19:34:00,
2013-02-07 13:39:00,25.0,24.0,29.87,NNW,342,3.0,11.0,96,0.00,,---,0.00,VWS V14.01,2013-02-07 19:39:00,
2013-02-07 13:44:00,24.9,23.9,29.87,NW,321,5.0,11.0,96,0.00,,---,0.00,VWS V14.01,2013-02-07 19:44:00,
2013-02-07 13:49:00,24.9,23.9,29.87,NNW,331,3.0,11.0,96,0.00,,---,0.00,VWS V14.01,2013-02-07 19:49:00,
2013-02-07 13:54:00,24.9,23.9,29.87,WNW,302,4.0,11.0,96,0.00,,---,0.00,VWS V14.01,2013-02-07 19:54:00,
2013-02-07 13:59:00,24.9,23.9,29.87,WNW,303,3.0,11.0,96,0.00,,---,0.00,VWS V14.01,2013-02-07 19:59:00,
2013-02-07 14:04:00,24.8,23.8,29.87,NW,309,4.0,11.0,96,0.00,,---,0.00,VWS V14.01,2013-02-07 20:04:00,
2013-02-07 14:09:00,24.9,23.9,29.87,NW,323,3.0,11.0,96,0.00,,---,0.00,VWS V14.01,2013-02-07 20:09:00,
2013-02-07 14:14:00,24.9,23.9,29.87,WNW,302,4.0,11.0,96,0.00,,---,0.00,VWS V14.01,2013-02-07 20:14:00,
2013-02-07 14:19:00,24.8,23.8,29.86,NNW,329,4.0,11.0,96,0.00,,---,0.00,VWS V14.01,2013-02-07 20:19:00,
2013-02-07 14:24:00,24.8,23.8,29.87,NW,307,5.0,11.0,96,0.00,,---,0.00,VWS V14.01,2013-02-07 20:24:00,
2013-02-07 14:29:00,24.9,23.9,29.87,North,5,10.0,12.0,96,0.00,,---,0.00,VWS V14.01,2013-02-07 20:29:00,
2013-02-07 14:34:00,24.8,23.8,29.87,NW,313,4.0,10.0,96,0.00,,---,0.00,VWS V14.01,2013-02-07 20:34:00,
2013-02-07 14:39:00,24.8,23.8,29.87,NW,317,3.0,11.0,96,0.00,,---,0.00,VWS V14.01,2013-02-07 20:39:00,
2013-02-07 14:44:00,24.9,23.9,29.86,NW,308,4.0,11.0,96,0.00,,---,0.00,VWS V14.01,2013-02-07 20:44:00,
2013-02-07 14:49:00,24.9,23.9,29.87,NNW,327,4.0,11.0,96,0.00,,---,0.00,VWS V14.01,2013-02-07 20:49:00,
2013-02-07 14:54:00,24.9,23.9,29.87,NNW,334,9.0,12.0,96,0.00,,---,0.00,VWS V14.01,2013-02-07 20:54:00,
2013-02-07 14:59:00,24.7,23.7,29.87,NNE,12,5.0,13.0,96,0.00,,---,0.00,VWS V14.01,2013-02-07 20:59:00,
2013-02-07 15:04:00,24.7,23.7,29.87,NNW,344,9.0,11.0,96,0.00,,---,0.00,VWS V14.01,2013-02-07 21:04:00,
2013-02-07 15:09:00,24.7,23.7,29.87,NW,319,10.0,15.0,96,0.00,,---,0.00,VWS V14.01,2013-02-07 21:09:00,
2013-02-07 15:14:00,24.6,23.6,29.87,NNW,333,7.0,15.0,96,0.00,,---,0.00,VWS V14.01,2013-02-07 21:14:00,
2013-02-07 15:19:00,24.6,23.6,29.87,NNW,336,7.0,15.0,96,0.00,,---,0.00,VWS V14.01,2013-02-07 21:19:00,
2013-02-07 15:24:00,24.5,23.5,29.87,North,355,6.0,15.0,96,0.00,,---,0.00,VWS V14.01,2013-02-07 21:24:00,
2013-02-07 15:29:00,24.6,23.6,29.87,NW,321,4.0,15.0,96,0.00,,---,0.00,VWS V14.01,2013-02-07 21:29:00,
2013-02-07 15:34:00,24.6,23.6,29.87,North,360,5.0,10.0,96,0.00,,---,0.00,VWS V14.01,2013-02-07 21:34:00,
2013-02-07 15:39:00,24.6,23.6,29.87,North,351,6.0,10.0,96,0.00,,---,0.00,VWS V14.01,2013-02-07 21:39:00,
2013-02-07 15:44:00,24.5,23.5,29.88,NNW,347,11.0,14.0,96,0.00,,---,0.00,VWS V14.01,2013-02-07 21:44:00,
2013-02-07 15:49:00,24.5,23.5,29.88,NW,310,4.0,14.0,96,0.00,,---,0.00,VWS V14.01,2013-02-07 21:49:00,
2013-02-07 15:54:00,24.5,23.5,29.88,NW,316,5.0,14.0,96,0.00,,---,0.00,VWS V14.01,2013-02-07 21:54:00,
2013-02-07 15:59:00,24.5,23.5,29.88,NNW,330,9.0,15.0,96,0.00,,---,0.00,VWS V14.01,2013-02-07 21:59:00,
2013-02-07 16:04:00,24.5,23.5,29.88,NW,309,6.0,13.0,96,0.00,,---,0.00,VWS V14.01,2013-02-07 22:04:00,
2013-02-07 16:10:00,24.4,23.4,29.88,NW,312,4.0,14.0,96,0.00,,---,0.00,VWS V14.01,2013-02-07 22:10:00,
2013-02-07 16:15:00,24.5,23.5,29.88,North,5,8.0,14.0,96,0.00,,---,0.00,VWS V14.01,2013-02-07 22:15:00,
2013-02-07 16:20:00,24.5,23.5,29.89,NW,323,3.0,14.0,96,0.00,,---,0.00,VWS V14.01,2013-02-07 22:20:00,
2013-02-07 16:25:00,24.6,23.6,29.89,NNW,342,6.0,14.0,96,0.00,,---,0.00,VWS V14.01,2013-02-07 22:25:00,
2013-02-07 16:30:00,24.6,23.6,29.89,NW,325,4.0,4.0,96,0.00,,---,0.00,VWS V14.01,2013-02-07 22:30:00,
2013-02-07 16:35:00,24.6,23.6,29.89,NW,315,3.0,14.0,96,0.00,,---,0.00,VWS V14.01,2013-02-07 22:35:00,
2013-02-07 16:40:00,24.6,23.6,29.89,NNW,343,11.0,14.0,96,0.00,,---,0.00,VWS V14.01,2013-02-07 22:40:00,
2013-02-07 16:45:00,24.7,23.7,29.89,NNE,15,11.0,15.0,96,0.00,,---,0.00,VWS V14.01,2013-02-07 22:45:00,
2013-02-07 16:50:00,24.6,23.6,29.89,NW,309,5.0,15.0,96,0.00,,---,0.00,VWS V14.01,2013-02-07 22:50:00,
2013-02-07 16:55:00,24.6,23.6,29.90,WNW,303,9.0,15.0,96,0.00,,---,0.00,VWS V14.01,2013-02-07 22:55:00,
2013-02-07 17:00:00,24.5,23.5,29.90,NW,305,7.0,7.0,96,0.00,,---,0.00,VWS V14.01,2013-02-07 23:00:00,
2013-02-07 17:05:00,24.5,23.5,29.90,NW,323,4.0,10.0,96,0.00,,---,0.00,VWS V14.01,2013-02-07 23:05:00,
2013-02-07 17:10:00,24.5,23.5,29.90,NW,321,4.0,11.0,96,0.00,,---,0.00,VWS V14.01,2013-02-07 23:10:00,
2013-02-07 17:15:00,24.4,23.4,29.91,NW,317,5.0,14.0,96,0.00,,---,0.00,VWS V14.01,2013-02-07 23:15:00,
2013-02-07 17:20:00,24.4,23.4,29.90,WNW,302,5.0,14.0,96,0.00,,---,0.00,VWS V14.01,2013-02-07 23:20:00,
2013-02-07 17:26:00,24.4,23.4,29.91,North,360,5.0,14.0,96,0.00,,---,0.00,VWS V14.01,2013-02-07 23:26:00,
2013-02-07 17:31:00,24.4,23.4,29.92,NNW,344,8.0,10.0,96,0.00,,---,0.00,VWS V14.01,2013-02-07 23:31:00,
2013-02-07 17:36:00,24.3,23.3,29.92,North,355,6.0,12.0,96,0.00,,---,0.00,VWS V14.01,2013-02-07 23:36:00,
2013-02-07 17:41:00,24.3,23.3,29.92,NW,323,5.0,12.0,96,0.00,,---,0.00,VWS V14.01,2013-02-07 23:41:00,
2013-02-07 17:46:00,24.3,23.3,29.92,NNW,331,7.0,12.0,96,0.00,,---,0.00,VWS V14.01,2013-02-07 23:46:00,
2013-02-07 17:51:00,24.3,23.3,29.93,WNW,300,4.0,12.0,96,0.00,,---,0.00,VWS V14.01,2013-02-07 23:51:00,
2013-02-07 17:56:00,24.3,23.3,29.92,WNW,297,3.0,12.0,96,0.00,,---,0.00,VWS V14.01,2013-02-07 23:56:00,
2013-02-07 18:02:00,24.3,23.3,29.93,WNW,298,5.0,5.0,96,0.00,,---,0.00,VWS V14.01,2013-02-08 00:02:00,
2013-02-07 18:07:00,24.2,23.2,29.93,NW,321,4.0,12.0,96,0.00,,---,0.00,VWS V14.01,2013-02-08 00:07:00,
2013-02-07 18:12:00,24.2,23.2,29.93,NW,323,12.0,12.0,96,0.00,,---,0.00,VWS V14.01,2013-02-08 00:12:00,
2013-02-07 18:17:00,24.3,23.3,29.93,North,351,10.0,12.0,96,0.00,,---,0.00,VWS V14.01,2013-02-08 00:17:00,
2013-02-07 18:22:00,24.2,23.2,29.94,NW,308,1.0,12.0,96,0.00,,---,0.00,VWS V14.01,2013-02-08 00:22:00,
2013-02-07 18:27:00,24.2,23.2,29.93,WNW,296,4.0,12.0,96,0.00,,---,0.00,VWS V14.01,2013-02-08 00:27:00,
2013-02-07 18:32:00,24.2,23.2,29.93,NNW,327,5.0,11.0,96,0.00,,---,0.00,VWS V14.01,2013-02-08 00:32:00,
2013-02-07 18:37:00,24.2,23.2,29.93,NNW,327,6.0,11.0,96,0.00,,---,0.00,VWS V14.01,2013-02-08 00:37:00,
2013-02-07 18:42:00,24.3,23.3,29.94,NW,306,3.0,12.0,96,0.00,,---,0.00,VWS V14.01,2013-02-08 00:42:00,
2013-02-07 18:47:00,24.3,23.3,29.94,NW,317,10.0,12.0,96,0.00,,---,0.00,VWS V14.01,2013-02-08 00:47:00,
2013-02-07 18:52:00,24.2,23.2,29.94,NNW,336,9.0,12.0,96,0.00,,---,0.00,VWS V14.01,2013-02-08 00:52:00,
2013-02-07 18:57:00,24.2,23.2,29.95,West,278,3.0,12.0,96,0.00,,---,0.00,VWS V14.01,2013-02-08 00:57:00,
2013-02-07 19:02:00,24.2,23.2,29.95,NW,318,5.0,12.0,96,0.00,,---,0.00,VWS V14.01,2013-02-08 01:02:00,
2013-02-07 19:07:00,24.1,23.1,29.95,NW,326,5.0,12.0,96,0.00,,---,0.00,VWS V14.01,2013-02-08 01:07:00,
2013-02-07 19:12:00,24.1,23.1,29.95,North,355,10.0,12.0,96,0.00,,---,0.00,VWS V14.01,2013-02-08 01:12:00,
2013-02-07 19:17:00,24.0,23.0,29.95,WNW,300,4.0,12.0,96,0.00,,---,0.00,VWS V14.01,2013-02-08 01:17:00,
2013-02-07 19:22:00,24.0,23.0,29.95,WNW,292,5.0,12.0,96,0.00,,---,0.00,VWS V14.01,2013-02-08 01:22:00,
2013-02-07 19:27:00,24.0,23.0,29.95,NNW,331,6.0,12.0,96,0.00,,---,0.00,VWS V14.01,2013-02-08 01:27:00,
2013-02-07 19:32:00,24.0,23.0,29.96,NW,312,6.0,10.0,96,0.00,,---,0.00,VWS V14.01,2013-02-08 01:32:00,
2013-02-07 19:37:00,24.0,23.0,29.96,NW,315,11.0,11.0,96,0.00,,---,0.00,VWS V14.01,2013-02-08 01:37:00,
2013-02-07 19:42:00,24.0,23.0,29.96,NW,308,3.0,13.0,96,0.00,,---,0.00,VWS V14.01,2013-02-08 01:42:00,
2013-02-07 19:47:00,23.9,22.9,29.97,WNW,300,6.0,13.0,96,0.00,,---,0.00,VWS V14.01,2013-02-08 01:47:00,
2013-02-07 19:52:00,23.9,22.9,29.97,NW,315,3.0,13.0,96,0.00,,---,0.00,VWS V14.01,2013-02-08 01:52:00,
2013-02-07 19:57:00,24.0,23.0,29.97,NW,321,6.0,13.0,96,0.00,,---,0.00,VWS V14.01,2013-02-08 01:57:00,
2013-02-07 20:02:00,23.9,22.9,29.97,NNW,329,5.0,8.0,96,0.00,,---,0.00,VWS V14.01,2013-02-08 02:02:00,
2013-02-07 20:07:00,23.9,22.9,29.97,NW,325,5.0,10.0,96,0.00,,---,0.00,VWS V14.01,2013-02-08 02:07:00,
2013-02-07 20:12:00,23.9,22.9,29.97,NNW,328,5.0,10.0,96,0.00,,---,0.00,VWS V14.01,2013-02-08 02:12:00,
2013-02-07 20:17:00,23.9,22.9,29.97,WNW,303,2.0,11.0,96,0.00,,---,0.00,VWS V14.01,2013-02-08 02:17:00,
2013-02-07 20:22:00,23.9,22.9,29.98,NNW,327,6.0,11.0,96,0.00,,---,0.00,VWS V14.01,2013-02-08 02:22:00,
2013-02-07 20:27:00,23.9,22.9,29.98,NW,326,5.0,11.0,96,0.00,,---,0.00,VWS V14.01,2013-02-08 02:27:00,
2013-02-07 20:32:00,23.8,22.8,29.98,North,351,4.0,11.0,96,0.00,,---,0.00,VWS V14.01,2013-02-08 02:32:00,
2013-02-07 20:37:00,23.8,22.8,29.98,NW,317,5.0,11.0,96,0.00,,---,0.00,VWS V14.01,2013-02-08 02:37:00,
2013-02-07 20:42:00,23.8,22.8,29.98,NNW,336,9.0,11.0,96,0.00,,---,0.00,VWS V14.01,2013-02-08 02:42:00,
2013-02-07 20:47:00,23.7,22.7,29.98,NW,316,6.0,12.0,96,0.00,,---,0.00,VWS V14.01,2013-02-08 02:47:00,
2013-02-07 20:52:00,23.7,22.7,29.99,NW,314,5.0,12.0,96,0.00,,---,0.00,VWS V14.01,2013-02-08 02:52:00,
2013-02-07 20:57:00,23.7,22.7,29.99,NNW,329,6.0,12.0,96,0.00,,---,0.00,VWS V14.01,2013-02-08 02:57:00,
2013-02-07 21:02:00,23.6,22.6,29.99,NE,36,6.0,14.0,96,0.00,,---,0.00,VWS V14.01,2013-02-08 03:02:00,
2013-02-07 21:07:00,23.6,22.6,29.99,NNW,336,6.0,14.0,96,0.00,,---,0.00,VWS V14.01,2013-02-08 03:07:00,
2013-02-07 21:12:00,23.8,22.8,29.99,NNW,336,4.0,14.0,96,0.00,,---,0.00,VWS V14.01,2013-02-08 03:12:00,
2013-02-07 21:17:00,23.7,22.7,29.99,NW,325,11.0,14.0,96,0.00,,---,0.00,VWS V14.01,2013-02-08 03:17:00,
2013-02-07 21:22:00,23.7,22.7,29.99,NNW,342,6.0,14.0,96,0.00,,---,0.00,VWS V14.01,2013-02-08 03:22:00,
2013-02-07 21:27:00,23.5,22.3,29.99,NNW,328,9.0,14.0,95,0.00,,---,0.00,VWS V14.01,2013-02-08 03:27:00,
2013-02-07 21:32:00,23.5,22.3,29.99,NNW,333,7.0,10.0,95,0.00,,---,0.00,VWS V14.01,2013-02-08 03:32:00,
2013-02-07 21:37:00,23.5,22.3,30.00,North,350,5.0,12.0,95,0.00,,---,0.00,VWS V14.01,2013-02-08 03:37:00,
2013-02-07 21:42:00,23.6,22.4,30.00,NNW,345,2.0,12.0,95,0.00,,---,0.00,VWS V14.01,2013-02-08 03:42:00,
2013-02-07 21:47:00,23.6,22.4,30.00,NW,325,2.0,12.0,95,0.00,,---,0.00,VWS V14.01,2013-02-08 03:47:00,
2013-02-07 21:52:00,23.6,22.4,30.01,NW,318,4.0,12.0,95,0.00,,---,0.00,VWS V14.01,2013-02-08 03:52:00,
2013-02-07 21:57:00,23.5,22.3,30.01,NW,311,10.0,12.0,95,0.00,,---,0.00,VWS V14.01,2013-02-08 03:57:00,
2013-02-07 22:02:00,23.4,22.2,30.01,NNW,336,5.0,8.0,95,0.00,,---,0.00,VWS V14.01,2013-02-08 04:02:00,
2013-02-07 22:07:00,23.3,21.8,30.01,NNW,341,4.0,10.0,94,0.00,,---,0.00,VWS V14.01,2013-02-08 04:07:00,
2013-02-07 22:12:00,23.3,21.8,30.01,NW,309,5.0,11.0,94,0.00,,---,0.00,VWS V14.01,2013-02-08 04:12:00,
2013-02-07 22:17:00,23.2,21.7,30.02,NNW,342,4.0,11.0,94,0.00,,---,0.00,VWS V14.01,2013-02-08 04:17:00,
2013-02-07 22:22:00,23.1,21.6,30.02,North,355,8.0,11.0,94,0.00,,---,0.00,VWS V14.01,2013-02-08 04:22:00,
2013-02-07 22:27:00,23.0,21.5,30.02,North,355,5.0,12.0,94,0.00,,---,0.00,VWS V14.01,2013-02-08 04:27:00,
2013-02-07 22:32:00,23.0,21.5,30.02,NW,314,4.0,7.0,94,0.00,,---,0.00,VWS V14.01,2013-02-08 04:32:00,
2013-02-07 22:37:00,23.0,21.3,30.02,NNE,15,6.0,12.0,93,0.00,,---,0.00,VWS V14.01,2013-02-08 04:37:00,
2013-02-07 22:42:00,22.9,21.2,30.03,NW,312,4.0,12.0,93,0.00,,---,0.00,VWS V14.01,2013-02-08 04:42:00,
2013-02-07 22:47:00,22.8,21.1,30.02,NNW,338,6.0,12.0,93,0.00,,---,0.00,VWS V14.01,2013-02-08 04:47:00,
2013-02-07 22:52:00,22.8,21.1,30.02,NNE,17,5.0,12.0,93,0.00,,---,0.00,VWS V14.01,2013-02-08 04:52:00,
2013-02-07 22:57:00,22.7,21.0,30.02,NNW,329,7.0,12.0,93,0.00,,---,0.00,VWS V14.01,2013-02-08 04:57:00,
2013-02-07 23:00:00,22.7,21.0,30.03,NNW,347,6.0,12.0,93,0.00,,---,0.00,VWS V14.01,2013-02-08 05:00:00,
2013-02-07 23:01:00,22.7,21.0,30.03,NNW,346,6.0,8.0,93,0.00,,---,0.00,VWS V14.01,2013-02-08 05:01:00,
2013-02-07 23:06:00,22.6,20.9,30.03,NNW,332,3.0,8.0,93,0.00,,---,0.00,VWS V14.01,2013-02-08 05:06:00,
2013-02-07 23:11:00,22.5,20.8,30.03,NNW,332,5.0,12.0,93,0.00,,---,0.00,VWS V14.01,2013-02-08 05:11:00,
2013-02-07 23:16:00,22.5,20.8,30.03,NNE,32,7.0,12.0,93,0.00,,---,0.00,VWS V14.01,2013-02-08 05:16:00,
2013-02-07 23:21:00,22.4,20.7,30.03,NE,42,4.0,12.0,93,0.00,,---,0.00,VWS V14.01,2013-02-08 05:21:00,
2013-02-07 23:26:00,22.3,20.6,30.04,NW,321,4.0,12.0,93,0.00,,---,0.00,VWS V14.01,2013-02-08 05:26:00,
2013-02-07 23:31:00,22.2,20.5,30.04,NNW,333,3.0,7.0,93,0.00,,---,0.00,VWS V14.01,2013-02-08 05:31:00,
2013-02-07 23:36:00,22.1,20.4,30.04,NW,315,3.0,13.0,93,0.00,,---,0.00,VWS V14.01,2013-02-08 05:36:00,
2013-02-07 23:41:00,22.1,20.4,30.05,NNW,338,5.0,13.0,93,0.00,,---,0.00,VWS V14.01,2013-02-08 05:41:00,
2013-02-07 23:46:00,22.1,20.4,30.05,NNE,13,5.0,13.0,93,0.00,,---,0.00,VWS V14.01,2013-02-08 05:46:00,
2013-02-07 23:51:00,22.0,20.3,30.05,NNW,341,4.0,13.0,93,0.00,,---,0.00,VWS V14.01,2013-02-08 05:51:00,
2013-02-07 23:56:00,22.0,20.3,30.05,North,355,10.0,13.0,93,0.00,,---,0.00,VWS V14.01,2013-02-08 05:56:00,